Time;durP1;ratioP1;P1;durP2;ratioP2;P2;SDS_P1;SDS_P2;PMS_P1;PMS_P2;Temp;Humidity;BMP_temperature;BMP_pressure;BME280_temperature;BME280_humidity;BME280_pressure;Samples;Min_cycle;Max_cycle;Signal;HPM_P1;HPM_P2
2024/03/15 00:00:13;;;;;;;3.90;3.47;;;13.80;99.90;;;;;;5030616;28;20189;-68
2024/03/15 00:02:38;;;;;;;3.90;3.50;;;13.80;99.90;;;;;;5029939;28;20667;-68
2024/03/15 00:05:04;;;;;;;7.30;3.97;;;13.80;99.90;;;;;;5030954;28;20435;-67
2024/03/15 00:07:30;;;;;;;4.80;4.30;;;13.80;99.90;;;;;;5028116;28;20221;-66
2024/03/15 00:09:56;;;;;;;4.00;3.57;;;13.80;99.90;;;;;;5031950;28;20431;-68
2024/03/15 00:12:21;;;;;;;4.20;3.80;;;13.80;99.90;;;;;;5034029;28;20842;-66
2024/03/15 00:14:47;;;;;;;3.77;3.40;;;13.80;99.90;;;;;;5034133;28;20474;-67
2024/03/15 00:17:13;;;;;;;4.03;3.23;;;13.80;99.90;;;;;;5035011;28;20197;-68
2024/03/15 00:19:39;;;;;;;3.63;3.33;;;13.80;99.90;;;;;;5033496;28;20636;-66
2024/03/15 00:22:06;;;;;;;4.20;3.63;;;13.80;99.90;;;;;;5034146;28;20178;-66
2024/03/15 00:24:33;;;;;;;5.33;3.80;;;13.80;99.90;;;;;;5034759;28;20523;-67
2024/03/15 00:26:59;;;;;;;3.40;3.10;;;13.80;99.90;;;;;;5034893;28;20511;-68
2024/03/15 00:29:27;;;;;;;4.73;3.90;;;13.70;99.90;;;;;;5031940;28;20439;-67
2024/03/15 00:31:55;;;;;;;4.10;3.70;;;13.80;99.90;;;;;;5034739;28;20433;-67
2024/03/15 00:34:21;;;;;;;5.23;4.17;;;13.70;99.90;;;;;;5035033;28;20927;-66
2024/03/15 00:36:47;;;;;;;5.47;3.77;;;13.70;99.90;;;;;;5033940;28;20458;-66
2024/03/15 00:39:14;;;;;;;4.23;3.80;;;13.70;99.90;;;;;;5033712;28;20219;-68
2024/03/15 00:41:42;;;;;;;5.03;4.00;;;13.70;99.90;;;;;;5034297;28;20413;-68
2024/03/15 00:44:07;;;;;;;4.40;4.00;;;13.70;99.90;;;;;;5035461;28;20424;-68
2024/03/15 00:46:33;;;;;;;4.50;4.03;;;13.70;99.90;;;;;;5034667;28;20444;-67
2024/03/15 00:48:59;;;;;;;3.63;3.33;;;13.70;99.90;;;;;;5035061;28;20189;-68
2024/03/15 00:51:25;;;;;;;4.27;3.70;;;13.70;99.90;;;;;;5035351;28;20947;-66
2024/03/15 00:53:51;;;;;;;4.50;3.83;;;13.70;99.90;;;;;;5034936;28;20190;-67
2024/03/15 00:56:17;;;;;;;6.70;4.23;;;13.70;99.90;;;;;;5034641;28;20433;-69
2024/03/15 00:58:43;;;;;;;5.47;4.10;;;13.70;99.90;;;;;;5028286;28;20240;-67
2024/03/15 01:01:10;;;;;;;4.83;4.00;;;13.70;99.90;;;;;;5033525;28;20448;-68
2024/03/15 01:03:36;;;;;;;4.23;3.37;;;13.70;99.90;;;;;;5032386;28;20181;-68
2024/03/15 01:06:02;;;;;;;5.67;3.53;;;13.70;99.90;;;;;;5033805;28;21034;-66
2024/03/15 01:08:31;;;;;;;4.90;3.90;;;13.70;99.90;;;;;;5033731;28;20480;-66
2024/03/15 01:10:58;;;;;;;4.67;4.10;;;13.70;99.90;;;;;;5032513;28;20182;-67
2024/03/15 01:13:24;;;;;;;3.93;3.50;;;13.80;99.90;;;;;;5034233;28;20455;-66
2024/03/15 01:15:50;;;;;;;6.00;3.70;;;13.70;99.90;;;;;;5031229;28;20448;-69
2024/03/15 01:18:16;;;;;;;4.90;3.60;;;13.80;99.90;;;;;;5032645;28;20433;-67
2024/03/15 01:20:42;;;;;;;5.37;3.97;;;13.70;99.90;;;;;;5030898;28;20523;-68
2024/03/15 01:23:08;;;;;;;3.87;3.47;;;13.80;99.90;;;;;;5033795;28;20181;-69
2024/03/15 01:25:34;;;;;;;4.30;3.90;;;13.70;99.90;;;;;;5033404;28;20490;-67
2024/03/15 01:28:01;;;;;;;4.30;3.67;;;13.80;99.90;;;;;;5032565;28;21452;-67
2024/03/15 01:30:27;;;;;;;3.93;3.50;;;13.80;99.90;;;;;;5033261;28;20437;-66
2024/03/15 01:32:53;;;;;;;5.87;4.43;;;13.80;99.90;;;;;;5031968;28;20503;-66
2024/03/15 01:35:18;;;;;;;5.33;4.57;;;13.80;99.90;;;;;;5033114;28;20206;-68
2024/03/15 01:37:44;;;;;;;5.57;3.70;;;13.70;99.90;;;;;;5032397;28;20182;-67
2024/03/15 01:40:15;;;;;;;4.40;3.50;;;13.70;99.90;;;;;;5031517;28;20209;-67
2024/03/15 01:42:41;;;;;;;4.63;3.70;;;13.70;99.90;;;;;;5033327;28;20794;-67
2024/03/15 01:45:09;;;;;;;6.03;3.80;;;13.70;99.90;;;;;;5032108;28;20427;-67
2024/03/15 01:47:36;;;;;;;3.67;3.20;;;13.70;99.90;;;;;;5032363;28;20482;-68
2024/03/15 01:50:02;;;;;;;4.67;3.30;;;13.60;99.90;;;;;;5031859;28;20422;-67
2024/03/15 01:52:32;;;;;;;4.67;3.47;;;13.60;99.90;;;;;;5033513;28;21230;-66
2024/03/15 01:54:58;;;;;;;3.93;3.43;;;13.60;99.90;;;;;;5032298;28;20456;-67
2024/03/15 01:57:24;;;;;;;4.70;3.23;;;13.60;99.90;;;;;;5032694;28;20524;-67
2024/03/15 01:59:50;;;;;;;4.20;3.53;;;13.60;99.90;;;;;;5032702;28;20263;-68
2024/03/15 02:02:16;;;;;;;4.40;3.30;;;13.70;99.90;;;;;;5031438;28;20463;-67
2024/03/15 02:04:53;;;;;;;4.03;3.60;;;13.70;99.90;;;;;;5033049;28;20432;-68
2024/03/15 02:07:27;;;;;;;5.20;3.50;;;13.70;99.90;;;;;;5031844;28;20218;-69
2024/03/15 02:09:53;;;;;;;5.07;3.07;;;13.80;99.90;;;;;;5032477;28;20433;-68
2024/03/15 02:12:19;;;;;;;6.47;3.83;;;13.80;99.90;;;;;;5033665;28;20433;-66
2024/03/15 02:14:48;;;;;;;4.53;3.20;;;13.80;99.90;;;;;;5033377;28;20463;-68
2024/03/15 02:17:18;;;;;;;5.60;3.43;;;13.70;99.90;;;;;;5033521;28;20186;-67
2024/03/15 02:19:46;;;;;;;4.10;3.03;;;13.70;99.90;;;;;;5031870;28;20425;-68
2024/03/15 02:22:12;;;;;;;5.47;3.50;;;13.70;99.90;;;;;;5031456;28;20482;-66
2024/03/15 02:24:40;;;;;;;3.73;2.97;;;13.60;99.90;;;;;;5033306;28;20432;-68
2024/03/15 02:27:13;;;;;;;3.90;3.33;;;13.60;99.90;;;;;;5032330;28;21151;-68
2024/03/15 02:29:40;;;;;;;5.73;3.80;;;13.50;99.90;;;;;;5032354;28;20539;-68
2024/03/15 02:32:06;;;;;;;4.20;3.37;;;13.50;99.90;;;;;;5031466;28;20479;-66
2024/03/15 02:34:34;;;;;;;4.80;3.57;;;13.50;99.90;;;;;;5032036;28;20842;-68
2024/03/15 02:37:01;;;;;;;5.13;3.10;;;13.50;99.90;;;;;;5031522;28;20430;-67
2024/03/15 02:39:27;;;;;;;3.33;2.83;;;13.50;99.90;;;;;;5028455;28;20472;-68
2024/03/15 02:41:53;;;;;;;6.90;3.43;;;13.60;99.90;;;;;;5031831;28;20513;-68
2024/03/15 02:44:19;;;;;;;6.27;3.47;;;13.60;99.90;;;;;;5032096;28;20280;-67
2024/03/15 02:46:48;;;;;;;5.03;3.63;;;13.60;99.90;;;;;;5031632;28;21210;-66
2024/03/15 02:49:14;;;;;;;6.03;3.20;;;13.60;99.90;;;;;;5031309;28;20184;-67
2024/03/15 02:51:41;;;;;;;5.60;3.37;;;13.60;99.90;;;;;;5032159;28;20505;-68
2024/03/15 02:54:08;;;;;;;5.50;3.60;;;13.60;99.90;;;;;;5031157;28;20437;-68
2024/03/15 02:56:35;;;;;;;4.13;2.93;;;13.60;99.90;;;;;;5032021;28;21076;-67
2024/03/15 02:59:01;;;;;;;4.27;3.07;;;13.60;99.90;;;;;;5031305;28;20941;-68
2024/03/15 03:01:26;;;;;;;4.23;3.27;;;13.70;99.90;;;;;;5062488;28;21074;-67
2024/03/15 03:03:52;;;;;;;4.70;3.40;;;13.60;99.90;;;;;;5032525;28;20451;-66
2024/03/15 03:06:18;;;;;;;3.63;3.00;;;13.60;99.90;;;;;;5030974;28;20921;-66
2024/03/15 03:08:43;;;;;;;4.43;2.80;;;13.50;99.90;;;;;;5029932;28;20251;-68
2024/03/15 03:11:11;;;;;;;4.40;2.90;;;13.50;99.90;;;;;;5029881;28;20181;-68
2024/03/15 03:13:37;;;;;;;5.07;3.60;;;13.40;99.90;;;;;;5030859;28;20907;-66
2024/03/15 03:16:05;;;;;;;3.90;3.33;;;13.30;99.90;;;;;;5030556;28;20777;-67
2024/03/15 03:18:31;;;;;;;3.83;3.23;;;13.40;99.90;;;;;;5030864;28;20440;-68
2024/03/15 03:20:56;;;;;;;4.80;3.13;;;13.50;99.90;;;;;;5030575;28;20433;-68
2024/03/15 03:23:23;;;;;;;5.23;3.03;;;13.60;99.90;;;;;;5029948;28;20185;-66
2024/03/15 03:25:52;;;;;;;4.10;3.20;;;13.60;99.90;;;;;;5031314;28;20442;-66
2024/03/15 03:28:18;;;;;;;4.67;2.70;;;13.60;99.90;;;;;;5029229;28;20476;-66
2024/03/15 03:30:44;;;;;;;3.37;3.00;;;13.60;99.90;;;;;;5030683;28;20429;-67
2024/03/15 03:33:10;;;;;;;7.40;3.43;;;13.60;99.90;;;;;;5030534;28;20204;-66
2024/03/15 03:35:36;;;;;;;3.60;3.00;;;13.60;99.90;;;;;;5030728;28;20429;-67
2024/03/15 03:38:02;;;;;;;3.43;3.13;;;13.50;99.90;;;;;;5031366;28;20183;-68
2024/03/15 03:40:28;;;;;;;5.10;3.40;;;13.40;99.90;;;;;;5029587;28;20197;-68
2024/03/15 03:42:54;;;;;;;3.20;2.90;;;13.30;99.90;;;;;;5031671;28;20456;-68
2024/03/15 03:45:22;;;;;;;6.20;3.30;;;13.30;99.90;;;;;;5032492;28;20933;-66
2024/03/15 03:47:49;;;;;;;3.73;3.13;;;13.40;99.90;;;;;;5033383;28;20343;-66
2024/03/15 03:50:18;;;;;;;4.23;3.37;;;13.30;99.90;;;;;;5033555;28;21003;-68
2024/03/15 03:52:46;;;;;;;3.90;3.13;;;13.30;99.90;;;;;;5034692;28;20487;-68
2024/03/15 03:55:14;;;;;;;3.90;3.17;;;13.40;99.90;;;;;;5034367;28;20429;-66
2024/03/15 03:57:41;;;;;;;3.70;3.00;;;13.40;99.90;;;;;;5034303;28;20432;-66
2024/03/15 04:00:10;;;;;;;3.07;2.63;;;13.50;99.90;;;;;;5033735;28;21959;-67
2024/03/15 04:02:35;;;;;;;3.57;3.00;;;13.40;99.90;;;;;;5033952;28;20772;-66
2024/03/15 04:05:03;;;;;;;3.97;2.80;;;13.40;99.90;;;;;;5034907;28;20424;-68
2024/03/15 04:07:29;;;;;;;3.33;3.03;;;13.40;99.90;;;;;;5032547;28;20232;-67
2024/03/15 04:09:56;;;;;;;3.93;2.90;;;13.40;99.90;;;;;;5034277;28;20433;-67
2024/03/15 04:12:21;;;;;;;12.80;3.63;;;13.40;99.90;;;;;;5032215;28;21040;-66
2024/03/15 04:14:49;;;;;;;3.50;2.83;;;13.30;99.90;;;;;;5032294;28;20501;-67
2024/03/15 04:17:19;;;;;;;3.67;3.17;;;13.30;99.90;;;;;;5032765;28;20866;-67
2024/03/15 04:19:46;;;;;;;4.40;3.27;;;13.30;99.90;;;;;;5034614;28;20429;-66
2024/03/15 04:22:13;;;;;;;3.60;3.00;;;13.20;99.90;;;;;;5033885;28;20424;-67
2024/03/15 04:24:39;;;;;;;4.33;3.47;;;13.30;99.90;;;;;;5034053;28;20462;-67
2024/03/15 04:27:08;;;;;;;5.00;2.87;;;13.30;99.90;;;;;;5034025;28;20468;-67
2024/03/15 04:29:35;;;;;;;4.43;3.10;;;13.30;99.90;;;;;;5033070;28;20612;-66
2024/03/15 04:32:04;;;;;;;3.50;3.20;;;13.30;99.90;;;;;;5033630;28;20427;-66
2024/03/15 04:34:30;;;;;;;4.77;3.67;;;13.30;99.90;;;;;;5032291;28;20432;-66
2024/03/15 04:36:59;;;;;;;3.93;3.07;;;13.30;99.90;;;;;;5033816;28;20429;-66
2024/03/15 04:39:25;;;;;;;3.60;3.30;;;13.40;99.90;;;;;;5030666;28;20437;-67
2024/03/15 04:41:50;;;;;;;3.27;3.00;;;13.40;99.90;;;;;;5033662;28;20432;-67
2024/03/15 04:44:16;;;;;;;5.43;2.93;;;13.40;99.90;;;;;;5033093;28;20186;-67
2024/03/15 04:46:42;;;;;;;3.93;3.30;;;13.40;99.90;;;;;;5033921;28;20452;-66
2024/03/15 04:49:08;;;;;;;5.73;2.70;;;13.40;99.90;;;;;;5033699;28;20218;-68
2024/03/15 04:51:34;;;;;;;4.50;3.50;;;13.40;99.90;;;;;;5031848;28;20712;-67
2024/03/15 04:54:00;;;;;;;3.60;3.17;;;13.40;99.90;;;;;;5033745;28;20463;-68
2024/03/15 04:56:25;;;;;;;4.70;3.50;;;13.40;99.90;;;;;;5032695;28;20194;-67
2024/03/15 04:58:51;;;;;;;5.83;3.07;;;13.40;99.90;;;;;;5033568;28;20471;-67
2024/03/15 05:01:17;;;;;;;9.23;3.70;;;13.50;99.90;;;;;;5031998;28;20865;-68
2024/03/15 05:03:42;;;;;;;4.93;3.30;;;13.50;99.90;;;;;;5033875;28;20285;-66
2024/03/15 05:06:09;;;;;;;3.10;2.80;;;13.50;99.90;;;;;;5033631;28;20352;-67
2024/03/15 05:08:35;;;;;;;3.83;3.40;;;13.40;99.90;;;;;;5032668;28;20218;-67
2024/03/15 05:11:01;;;;;;;5.20;3.27;;;13.50;99.90;;;;;;5033623;28;20429;-68
2024/03/15 05:13:28;;;;;;;5.27;3.30;;;13.40;99.90;;;;;;5031048;28;20197;-68
2024/03/15 05:15:53;;;;;;;4.60;3.37;;;13.40;99.90;;;;;;5032741;28;20433;-66
2024/03/15 05:18:20;;;;;;;5.30;3.00;;;13.40;99.90;;;;;;5032304;28;20430;-68
2024/03/15 05:20:48;;;;;;;4.30;3.60;;;13.40;99.90;;;;;;5032768;28;20536;-67
2024/03/15 05:23:14;;;;;;;5.80;3.20;;;13.40;99.90;;;;;;5032726;28;20866;-67
2024/03/15 05:25:40;;;;;;;3.47;3.17;;;13.40;99.90;;;;;;5032534;28;20436;-66
2024/03/15 05:28:08;;;;;;;6.53;3.60;;;13.40;99.90;;;;;;5032672;28;20210;-65
2024/03/15 05:30:34;;;;;;;4.80;3.37;;;13.40;99.90;;;;;;5030542;28;20459;-68
2024/03/15 05:33:00;;;;;;;4.83;2.87;;;13.40;99.90;;;;;;5032833;28;20456;-67
2024/03/15 05:35:25;;;;;;;3.20;2.87;;;13.40;99.90;;;;;;5031173;28;20587;-67
2024/03/15 05:37:51;;;;;;;3.90;3.20;;;13.40;99.90;;;;;;5032380;28;20178;-67
2024/03/15 05:40:18;;;;;;;4.27;3.50;;;13.50;99.90;;;;;;5031035;28;20661;-67
2024/03/15 05:42:44;;;;;;;4.40;3.27;;;13.40;99.90;;;;;;5030251;28;20301;-67
2024/03/15 05:45:10;;;;;;;3.50;2.77;;;13.40;99.90;;;;;;5032834;28;20503;-68
2024/03/15 05:47:36;;;;;;;5.87;3.33;;;13.40;99.90;;;;;;5031472;28;20225;-66
2024/03/15 05:50:04;;;;;;;5.37;3.83;;;13.40;99.90;;;;;;5032506;28;20435;-67
2024/03/15 05:52:32;;;;;;;6.30;4.00;;;13.40;99.90;;;;;;5031243;28;20182;-66
2024/03/15 05:54:59;;;;;;;4.63;3.50;;;13.40;99.90;;;;;;5032375;28;20437;-67
2024/03/15 05:57:28;;;;;;;5.40;3.50;;;13.50;99.90;;;;;;5031753;28;20548;-67
2024/03/15 05:59:54;;;;;;;3.40;3.10;;;13.40;99.90;;;;;;5031945;28;21011;-67
2024/03/15 06:02:20;;;;;;;6.33;3.57;;;13.50;99.90;;;;;;5031980;28;20428;-66
2024/03/15 06:04:46;;;;;;;5.17;3.30;;;13.40;99.90;;;;;;5031815;28;20433;-68
2024/03/15 06:07:12;;;;;;;5.83;3.20;;;13.40;99.90;;;;;;5031534;28;20221;-68
2024/03/15 06:09:41;;;;;;;3.60;2.90;;;13.30;99.90;;;;;;5031490;28;20961;-66
2024/03/15 06:12:07;;;;;;;5.07;3.63;;;13.40;99.90;;;;;;5031837;28;20186;-66
2024/03/15 06:14:33;;;;;;;5.00;3.80;;;13.40;99.90;;;;;;5031670;28;20481;-67
2024/03/15 06:16:59;;;;;;;8.33;3.27;;;13.40;99.90;;;;;;5030990;28;20429;-66
2024/03/15 06:19:25;;;;;;;5.07;3.70;;;13.40;99.90;;;;;;5031695;28;20440;-66
2024/03/15 06:21:50;;;;;;;5.20;3.50;;;13.40;99.90;;;;;;5029957;28;20186;-66
2024/03/15 06:24:20;;;;;;;3.63;3.30;;;13.50;99.90;;;;;;5031863;28;20183;-66
2024/03/15 06:26:47;;;;;;;3.60;3.30;;;13.50;99.90;;;;;;5031171;28;20244;-67
2024/03/15 06:29:16;;;;;;;6.60;3.90;;;13.40;99.90;;;;;;5031626;28;20440;-66
2024/03/15 06:31:43;;;;;;;3.83;3.43;;;13.40;99.90;;;;;;5030731;28;20428;-66
2024/03/15 06:34:08;;;;;;;5.90;4.17;;;13.40;99.90;;;;;;5031281;28;20852;-67
2024/03/15 06:36:42;;;;;;;4.30;3.63;;;13.40;99.90;;;;;;5030431;28;20513;-68
2024/03/15 06:42:23;;;;;;;4.33;3.30;;;13.40;99.90;;;;;;4972860;28;20894;-67
2024/03/15 06:45:01;;;;;;;7.40;4.50;;;13.30;99.90;;;;;;5024125;28;20431;-67
2024/03/15 06:47:32;;;;;;;4.63;3.90;;;13.30;99.90;;;;;;5030789;28;20480;-66
2024/03/15 06:50:08;;;;;;;5.47;3.70;;;13.30;99.90;;;;;;5031157;28;20418;-68
2024/03/15 06:52:34;;;;;;;4.37;3.70;;;13.30;99.90;;;;;;5030338;28;20429;-66
2024/03/15 06:55:08;;;;;;;3.67;3.30;;;13.30;99.90;;;;;;5031142;28;20443;-65
2024/03/15 06:57:37;;;;;;;4.50;3.30;;;13.30;99.90;;;;;;5031906;28;20320;-66
2024/03/15 07:00:11;;;;;;;5.20;4.70;;;13.30;99.90;;;;;;5031987;28;21224;-66
2024/03/15 07:02:42;;;;;;;5.50;3.00;;;13.30;99.90;;;;;;5032647;28;20421;-67
2024/03/15 07:05:10;;;;;;;5.90;3.80;;;13.40;99.90;;;;;;5032459;28;20429;-67
2024/03/15 07:07:37;;;;;;;4.07;3.63;;;13.40;99.90;;;;;;5031349;28;20936;-66
2024/03/15 07:10:04;;;;;;;6.70;4.43;;;13.50;99.90;;;;;;5031023;28;20508;-67
2024/03/15 07:12:30;;;;;;;6.93;3.90;;;13.50;99.90;;;;;;5031861;28;21100;-67
2024/03/15 07:14:56;;;;;;;4.93;3.10;;;13.50;99.90;;;;;;5031878;28;20426;-67
2024/03/15 07:17:24;;;;;;;4.30;3.10;;;13.50;99.90;;;;;;5032339;28;20432;-67
2024/03/15 07:19:50;;;;;;;6.23;3.63;;;13.60;99.90;;;;;;5030139;28;20217;-66
2024/03/15 07:22:16;;;;;;;6.00;3.70;;;13.60;99.90;;;;;;5032446;28;21090;-66
2024/03/15 07:24:48;;;;;;;7.83;4.20;;;13.60;99.90;;;;;;5032045;28;20421;-66
2024/03/15 07:27:14;;;;;;;4.43;3.80;;;13.60;99.90;;;;;;5029033;28;21071;-67
2024/03/15 07:29:42;;;;;;;5.30;3.67;;;13.70;99.90;;;;;;5031716;28;20418;-67
2024/03/15 07:32:07;;;;;;;5.27;3.90;;;13.70;99.90;;;;;;5031784;28;21018;-66
2024/03/15 07:34:33;;;;;;;5.90;4.00;;;13.70;99.90;;;;;;5032191;28;20485;-65
2024/03/15 07:37:01;;;;;;;5.73;3.80;;;13.60;99.90;;;;;;5031281;28;20269;-66
2024/03/15 07:39:32;;;;;;;4.60;3.97;;;13.60;99.90;;;;;;5029903;28;20189;-66
2024/03/15 07:41:59;;;;;;;5.30;3.80;;;13.70;99.90;;;;;;5029357;28;20469;-65
2024/03/15 07:44:26;;;;;;;9.57;3.80;;;13.70;99.90;;;;;;5030624;28;20436;-66
2024/03/15 07:46:53;;;;;;;5.90;3.57;;;13.70;99.90;;;;;;5031480;28;20449;-67
2024/03/15 07:49:18;;;;;;;6.20;3.50;;;13.90;99.90;;;;;;5031711;28;20429;-66
2024/03/15 07:51:47;;;;;;;5.73;3.70;;;13.80;99.90;;;;;;5031203;28;20791;-66
2024/03/15 07:54:14;;;;;;;4.20;3.67;;;13.90;99.90;;;;;;5031998;28;20556;-65
2024/03/15 07:56:40;;;;;;;8.17;3.90;;;13.90;99.90;;;;;;5031009;28;20421;-66
2024/03/15 07:59:05;;;;;;;3.93;3.53;;;13.90;99.90;;;;;;5030658;28;20443;-67
2024/03/15 08:01:31;;;;;;;4.80;3.80;;;13.80;99.90;;;;;;5031795;28;20651;-66
2024/03/15 08:03:58;;;;;;;5.17;4.00;;;13.90;99.90;;;;;;5031353;28;20181;-67
2024/03/15 08:06:23;;;;;;;6.63;3.60;;;13.90;99.90;;;;;;5031908;28;20440;-66
2024/03/15 08:08:51;;;;;;;6.30;4.10;;;13.90;99.90;;;;;;5030177;28;20460;-67
2024/03/15 08:11:18;;;;;;;5.87;3.80;;;13.90;99.90;;;;;;5029020;28;20183;-65
2024/03/15 08:13:44;;;;;;;7.30;4.43;;;13.90;99.90;;;;;;5031609;28;20508;-67
2024/03/15 08:16:19;;;;;;;6.80;4.47;;;13.80;99.90;;;;;;5030873;28;20572;-66
2024/03/15 08:18:48;;;;;;;3.83;3.53;;;13.90;99.90;;;;;;5031061;28;20197;-66
2024/03/15 08:21:15;;;;;;;4.93;3.60;;;13.80;99.90;;;;;;5030801;28;20764;-67
2024/03/15 08:23:44;;;;;;;9.33;3.60;;;13.90;99.90;;;;;;5031064;28;20433;-65
2024/03/15 08:26:12;;;;;;;6.07;4.00;;;13.90;99.90;;;;;;5030928;28;20421;-67
2024/03/15 08:28:38;;;;;;;6.40;3.70;;;13.80;99.90;;;;;;5030733;28;20983;-67
2024/03/15 08:31:04;;;;;;;4.63;4.17;;;13.90;99.90;;;;;;5031912;28;20464;-66
2024/03/15 08:33:30;;;;;;;5.00;4.50;;;13.80;99.90;;;;;;5035308;28;20432;-66
2024/03/15 08:35:56;;;;;;;8.30;4.87;;;13.80;99.90;;;;;;5033198;28;20926;-67
2024/03/15 08:38:23;;;;;;;5.00;4.50;;;13.70;99.90;;;;;;5033303;28;20192;-65
2024/03/15 08:40:48;;;;;;;5.17;4.23;;;13.70;99.90;;;;;;5034163;28;21136;-66
2024/03/15 08:43:15;;;;;;;7.07;4.97;;;13.70;99.90;;;;;;5034182;28;20421;-67
2024/03/15 08:45:40;;;;;;;6.77;4.77;;;13.70;99.90;;;;;;5035630;28;20313;-66
2024/03/15 08:48:07;;;;;;;6.70;5.20;;;13.70;99.90;;;;;;5033069;28;20475;-66
2024/03/15 08:50:33;;;;;;;9.67;5.50;;;13.80;99.90;;;;;;5034442;28;20436;-67
2024/03/15 08:52:59;;;;;;;5.13;4.63;;;13.70;99.90;;;;;;5033928;28;20428;-67
2024/03/15 08:55:25;;;;;;;7.00;6.30;;;13.70;99.90;;;;;;5034562;28;20459;-66
2024/03/15 08:57:51;;;;;;;4.83;4.43;;;13.70;99.90;;;;;;5033358;28;21217;-66
2024/03/15 09:00:17;;;;;;;6.43;5.03;;;13.60;99.90;;;;;;5033308;28;20441;-66
2024/03/15 09:02:43;;;;;;;7.00;5.50;;;13.60;99.90;;;;;;5034623;28;20192;-65
2024/03/15 09:05:09;;;;;;;5.87;5.27;;;13.70;99.90;;;;;;5033809;28;20428;-65
2024/03/15 09:07:45;;;;;;;6.07;5.47;;;13.60;99.90;;;;;;5034057;28;20218;-66
2024/03/15 09:10:13;;;;;;;5.90;5.27;;;13.60;99.90;;;;;;5033434;28;20946;-66
2024/03/15 09:12:46;;;;;;;5.73;5.03;;;13.60;99.90;;;;;;5034223;28;20444;-66
2024/03/15 09:15:12;;;;;;;7.97;5.30;;;13.60;99.90;;;;;;5032827;28;21067;-66
2024/03/15 09:17:39;;;;;;;6.03;5.20;;;13.60;99.90;;;;;;5033581;28;20432;-66
2024/03/15 09:20:18;;;;;;;7.37;5.40;;;13.60;99.90;;;;;;5033313;28;20536;-66
2024/03/15 09:22:47;;;;;;;8.17;5.27;;;13.70;99.90;;;;;;5034024;28;20463;-67
2024/03/15 09:25:18;;;;;;;6.80;4.70;;;13.80;99.90;;;;;;5033176;28;20433;-67
2024/03/15 09:27:53;;;;;;;5.10;4.60;;;13.70;99.90;;;;;;5033483;28;20477;-65
2024/03/15 09:30:29;;;;;;;6.30;4.47;;;13.80;99.90;;;;;;5032614;28;20548;-67
2024/03/15 09:32:56;;;;;;;4.63;4.20;;;13.70;99.90;;;;;;5033689;28;20421;-67
2024/03/15 09:35:22;;;;;;;9.20;4.80;;;13.70;99.90;;;;;;5032494;28;20551;-66
2024/03/15 09:37:51;;;;;;;5.50;4.90;;;13.70;99.90;;;;;;5032519;28;20433;-65
2024/03/15 09:40:21;;;;;;;7.30;4.70;;;13.70;99.90;;;;;;5029685;28;20422;-68
2024/03/15 09:42:48;;;;;;;5.93;4.37;;;13.80;99.90;;;;;;5032039;28;21116;-66
2024/03/15 09:45:18;;;;;;;6.07;4.77;;;13.80;99.90;;;;;;5032904;28;20504;-67
2024/03/15 09:47:48;;;;;;;8.90;5.03;;;13.80;99.90;;;;;;5032270;28;21356;-66
2024/03/15 09:50:21;;;;;;;6.53;5.40;;;13.80;99.90;;;;;;5032979;28;20431;-67
2024/03/15 09:52:49;;;;;;;5.50;5.00;;;13.80;99.90;;;;;;5032106;28;20424;-67
2024/03/15 09:55:19;;;;;;;5.60;5.00;;;13.80;99.90;;;;;;5032075;28;20461;-67
2024/03/15 09:57:46;;;;;;;6.80;4.63;;;13.90;99.90;;;;;;5032040;28;20990;-66
2024/03/15 10:00:16;;;;;;;7.93;4.90;;;13.90;99.90;;;;;;5031792;28;20436;-66
2024/03/15 10:02:45;;;;;;;9.43;4.50;;;13.90;99.90;;;;;;5032070;28;20786;-66
2024/03/15 10:05:12;;;;;;;5.40;4.27;;;14.00;99.90;;;;;;5032870;28;20432;-65
2024/03/15 10:07:38;;;;;;;5.07;4.67;;;14.10;99.90;;;;;;5031789;28;20513;-67
2024/03/15 10:10:11;;;;;;;7.40;5.00;;;14.20;99.90;;;;;;5032998;28;20820;-65
2024/03/15 10:12:47;;;;;;;5.47;4.57;;;14.20;99.90;;;;;;5032026;28;21264;-67
2024/03/15 10:15:17;;;;;;;6.30;5.10;;;14.30;99.90;;;;;;5032137;28;20459;-65
2024/03/15 10:17:46;;;;;;;6.03;3.60;;;14.30;99.90;;;;;;5031810;28;20998;-65
2024/03/15 10:20:18;;;;;;;8.07;4.70;;;14.40;99.90;;;;;;5031961;28;20528;-65
2024/03/15 10:22:46;;;;;;;4.60;4.20;;;14.50;99.90;;;;;;5032025;28;20982;-67
2024/03/15 10:25:16;;;;;;;6.03;3.87;;;14.50;99.90;;;;;;5031167;28;20431;-67
2024/03/15 10:27:45;;;;;;;4.50;3.57;;;14.50;99.90;;;;;;5031630;28;20472;-65
2024/03/15 10:30:16;;;;;;;5.17;4.67;;;14.50;99.90;;;;;;5032047;28;20429;-67
2024/03/15 10:32:46;;;;;;;4.37;3.93;;;14.50;99.90;;;;;;5032144;28;20529;-66
2024/03/15 10:35:13;;;;;;;6.00;4.17;;;14.50;99.90;;;;;;5031363;28;20468;-68
2024/03/15 10:37:40;;;;;;;5.60;4.00;;;14.50;99.90;;;;;;5031676;28;21060;-67
2024/03/15 10:40:13;;;;;;;4.57;3.77;;;14.50;99.90;;;;;;5030497;28;20428;-66
2024/03/15 10:42:42;;;;;;;4.70;3.83;;;14.50;99.90;;;;;;5031557;28;20436;-65
2024/03/15 10:45:12;;;;;;;4.50;3.43;;;14.50;99.90;;;;;;5031625;28;20485;-66
2024/03/15 10:47:39;;;;;;;9.20;4.67;;;14.50;99.90;;;;;;5030464;28;20567;-66
2024/03/15 10:50:11;;;;;;;4.30;3.90;;;14.60;99.90;;;;;;5032209;28;20486;-67
2024/03/15 10:52:46;;;;;;;8.13;4.07;;;14.60;99.90;;;;;;5031155;28;20425;-66
2024/03/15 10:55:24;;;;;;;4.30;3.80;;;14.60;99.90;;;;;;5031621;28;20541;-66
2024/03/15 10:57:53;;;;;;;4.60;4.17;;;14.60;99.90;;;;;;5030964;28;20432;-66
2024/03/15 11:00:24;;;;;;;6.80;3.90;;;14.60;99.90;;;;;;5030453;28;20826;-67
2024/03/15 11:02:51;;;;;;;5.73;3.80;;;14.50;99.90;;;;;;5031608;28;20433;-67
2024/03/15 11:05:27;;;;;;;4.13;3.73;;;14.50;99.90;;;;;;5031181;28;20527;-66
2024/03/15 11:08:02;;;;;;;5.50;3.77;;;14.60;99.90;;;;;;5030420;28;20887;-67
2024/03/15 11:10:28;;;;;;;5.07;3.77;;;14.60;99.90;;;;;;5029239;28;20444;-66
2024/03/15 11:12:57;;;;;;;4.73;4.10;;;14.60;99.90;;;;;;5031994;28;20425;-66
2024/03/15 11:15:23;;;;;;;4.60;4.10;;;14.70;99.90;;;;;;5030265;28;20455;-66
2024/03/15 11:18:02;;;;;;;5.63;4.17;;;14.70;99.90;;;;;;5029821;28;20454;-66
2024/03/15 11:20:43;;;;;;;9.13;4.23;;;14.70;99.90;;;;;;5029301;28;20536;-66
2024/03/15 11:23:11;;;;;;;5.97;3.80;;;14.80;99.90;;;;;;5031450;28;20431;-67
2024/03/15 11:25:38;;;;;;;4.33;3.57;;;14.90;99.90;;;;;;5030062;28;20600;-67
2024/03/15 11:28:04;;;;;;;7.57;3.40;;;15.00;99.90;;;;;;5030089;28;20567;-67
2024/03/15 11:30:31;;;;;;;7.00;3.27;;;15.10;99.90;;;;;;5030368;28;21016;-67
2024/03/15 11:32:57;;;;;;;4.90;3.43;;;15.00;99.90;;;;;;5031816;28;20468;-67
2024/03/15 11:35:23;;;;;;;4.70;3.10;;;15.10;99.90;;;;;;5030313;28;20457;-67
2024/03/15 11:37:55;;;;;;;6.50;2.80;;;15.20;99.90;;;;;;5030630;28;20424;-65
2024/03/15 11:40:27;;;;;;;5.37;3.07;;;15.30;99.90;;;;;;5029499;28;21017;-67
2024/03/15 11:42:52;;;;;;;5.03;2.70;;;15.40;99.90;;;;;;5028646;28;20982;-67
2024/03/15 11:45:18;;;;;;;6.57;2.83;;;15.40;99.90;;;;;;5030624;28;20440;-66
2024/03/15 11:47:44;;;;;;;5.33;2.40;;;15.40;99.90;;;;;;5030090;28;20227;-66
2024/03/15 11:50:16;;;;;;;3.97;2.63;;;15.40;99.90;;;;;;5031364;28;20181;-67
2024/03/15 11:52:59;;;;;;;6.30;1.97;;;15.40;99.90;;;;;;5030937;28;20177;-65
2024/03/15 11:55:24;;;;;;;6.50;2.40;;;15.60;99.90;;;;;;5030627;28;20523;-66
2024/03/15 11:57:52;;;;;;;5.60;1.67;;;15.80;99.90;;;;;;5014239;28;20476;-67
2024/03/15 12:00:21;;;;;;;2.50;1.50;;;15.90;99.90;;;;;;5031320;28;20531;-66
2024/03/15 12:02:53;;;;;;;4.10;1.80;;;16.00;99.90;;;;;;5030487;28;20563;-66
2024/03/15 12:05:18;;;;;;;6.43;2.33;;;16.10;99.90;;;;;;5030957;28;20541;-67
2024/03/15 12:07:44;;;;;;;8.07;2.10;;;16.10;99.90;;;;;;5034183;28;20483;-66
2024/03/15 12:10:14;;;;;;;6.30;2.23;;;16.20;99.90;;;;;;5035751;28;20273;-66
2024/03/15 12:12:44;;;;;;;4.37;1.97;;;16.40;99.90;;;;;;5033587;28;20448;-66
2024/03/15 12:15:27;;;;;;;3.20;2.00;;;16.50;99.90;;;;;;5034645;28;20439;-66
2024/03/15 12:17:59;;;;;;;3.20;1.80;;;16.60;99.90;;;;;;5032690;28;20494;-67
2024/03/15 12:20:26;;;;;;;1.60;1.50;;;16.50;99.90;;;;;;5033923;28;20518;-66
2024/03/15 12:22:52;;;;;;;3.23;1.80;;;16.60;99.90;;;;;;5033949;28;20456;-67
2024/03/15 12:25:18;;;;;;;2.60;1.73;;;16.60;99.90;;;;;;5033504;28;20448;-68
2024/03/15 12:27:44;;;;;;;8.20;1.70;;;16.70;99.90;;;;;;5033348;28;20483;-67
2024/03/15 12:30:12;;;;;;;5.00;2.13;;;16.60;99.90;;;;;;5034509;28;20873;-67
2024/03/15 12:32:38;;;;;;;6.60;2.17;;;16.60;99.90;;;;;;5032724;28;20179;-66
2024/03/15 12:35:05;;;;;;;3.40;1.90;;;16.70;99.90;;;;;;5033720;28;20424;-69
2024/03/15 12:37:33;;;;;;;4.73;2.20;;;16.80;99.90;;;;;;5032837;28;20442;-68
2024/03/15 12:39:59;;;;;;;12.07;2.93;;;16.80;99.90;;;;;;5033360;28;20918;-68
2024/03/15 12:42:25;;;;;;;6.17;1.90;;;16.70;99.90;;;;;;5033594;28;20428;-67
2024/03/15 12:44:52;;;;;;;2.53;2.00;;;16.70;99.90;;;;;;5033349;28;20182;-67
2024/03/15 12:47:17;;;;;;;3.03;1.70;;;16.50;99.90;;;;;;5033083;28;20452;-66
2024/03/15 12:49:43;;;;;;;5.07;2.20;;;16.50;99.90;;;;;;5033423;28;20448;-67
2024/03/15 12:52:12;;;;;;;1.87;1.70;;;16.50;99.90;;;;;;5033048;28;20182;-68